Mogi Das Cruzes, Brazil
Current Conditions -  °F | °C
As of 11:00 AM on Thursday 23 Oct 2014 (Local Time) from SBGR Reporting Station
Clear Clear  
Wind Chill: 68°   Ceiling: Unl
Heat Index: 68°   Visibility: 6mi
Dew Point: 59°   Wind: 9mph
Humidity: 73%   Direction: 60°ENE
Pressure: 30.21"   Gusts: NA
Location:  23.52°S, 46.19°W
Report Text: SBGR 231300Z 06008KT CAVOK 20/15 Q1023
Loading
Personal Weather Stations






























Interactive Weather Map
Tropical Storm Tracking
New forecast layout! Learn more

10-Day Weather Forecast

Advertisements
Track Severe Weather on mobile